sensor_id;sensor_type;location;lat;lon;timestamp;P1;durP1;ratioP1;P2;durP2;ratioP2
69280;SDS011;56392;51.082;17.080;2023-08-20T00:01:22;18.73;;;13.00;;
69280;SDS011;56392;51.082;17.080;2023-08-20T00:06:46;19.55;;;14.18;;
69280;SDS011;56392;51.082;17.080;2023-08-20T00:12:11;21.77;;;13.68;;
69280;SDS011;56392;51.082;17.080;2023-08-20T00:17:35;19.77;;;13.00;;
69280;SDS011;56392;51.082;17.080;2023-08-20T00:22:59;20.25;;;12.85;;
69280;SDS011;56392;51.082;17.080;2023-08-20T00:28:24;21.65;;;12.70;;
69280;SDS011;56392;51.082;17.080;2023-08-20T00:33:47;22.50;;;12.33;;
69280;SDS011;56392;51.082;17.080;2023-08-20T00:39:10;15.93;;;11.03;;
69280;SDS011;56392;51.082;17.080;2023-08-20T00:44:34;16.73;;;11.70;;
69280;SDS011;56392;51.082;17.080;2023-08-20T00:49:57;19.48;;;11.30;;
69280;SDS011;56392;51.082;17.080;2023-08-20T00:55:21;20.07;;;12.73;;
69280;SDS011;56392;51.082;17.080;2023-08-20T01:00:45;22.38;;;13.20;;
69280;SDS011;56392;51.082;17.080;2023-08-20T01:06:09;36.10;;;21.52;;
69280;SDS011;56392;51.082;17.080;2023-08-20T01:11:39;26.27;;;17.57;;
69280;SDS011;56392;51.082;17.080;2023-08-20T01:17:09;23.52;;;13.50;;
69280;SDS011;56392;51.082;17.080;2023-08-20T01:28:24;26.93;;;15.93;;
69280;SDS011;56392;51.082;17.080;2023-08-20T01:33:48;22.43;;;14.90;;
69280;SDS011;56392;51.082;17.080;2023-08-20T01:39:13;18.83;;;13.48;;
69280;SDS011;56392;51.082;17.080;2023-08-20T01:44:38;24.15;;;13.93;;
69280;SDS011;56392;51.082;17.080;2023-08-20T01:50:01;20.07;;;12.90;;
69280;SDS011;56392;51.082;17.080;2023-08-20T01:55:24;18.80;;;12.82;;
69280;SDS011;56392;51.082;17.080;2023-08-20T02:00:48;19.55;;;12.73;;
69280;SDS011;56392;51.082;17.080;2023-08-20T02:06:11;18.60;;;13.30;;
69280;SDS011;56392;51.082;17.080;2023-08-20T02:11:34;20.90;;;12.55;;
69280;SDS011;56392;51.082;17.080;2023-08-20T02:16:59;21.63;;;13.88;;
69280;SDS011;56392;51.082;17.080;2023-08-20T02:22:22;22.60;;;13.50;;
69280;SDS011;56392;51.082;17.080;2023-08-20T02:27:45;21.20;;;14.07;;
69280;SDS011;56392;51.082;17.080;2023-08-20T02:33:09;23.25;;;15.57;;
69280;SDS011;56392;51.082;17.080;2023-08-20T02:38:33;23.90;;;16.80;;
69280;SDS011;56392;51.082;17.080;2023-08-20T02:43:56;23.10;;;14.73;;
69280;SDS011;56392;51.082;17.080;2023-08-20T02:49:21;21.50;;;15.45;;
69280;SDS011;56392;51.082;17.080;2023-08-20T02:54:44;21.77;;;14.40;;
69280;SDS011;56392;51.082;17.080;2023-08-20T03:00:07;23.83;;;14.27;;
69280;SDS011;56392;51.082;17.080;2023-08-20T03:05:34;19.75;;;13.60;;
69280;SDS011;56392;51.082;17.080;2023-08-20T03:10:57;20.05;;;13.65;;
69280;SDS011;56392;51.082;17.080;2023-08-20T03:16:20;20.53;;;13.73;;
69280;SDS011;56392;51.082;17.080;2023-08-20T03:21:44;20.50;;;14.00;;
69280;SDS011;56392;51.082;17.080;2023-08-20T03:27:08;19.35;;;13.70;;
69280;SDS011;56392;51.082;17.080;2023-08-20T03:32:30;21.40;;;13.98;;
69280;SDS011;56392;51.082;17.080;2023-08-20T03:37:55;19.37;;;13.33;;
69280;SDS011;56392;51.082;17.080;2023-08-20T03:43:18;19.50;;;13.50;;
69280;SDS011;56392;51.082;17.080;2023-08-20T03:48:41;19.70;;;13.00;;
69280;SDS011;56392;51.082;17.080;2023-08-20T03:54:06;20.13;;;13.40;;
69280;SDS011;56392;51.082;17.080;2023-08-20T03:59:29;20.38;;;13.10;;
69280;SDS011;56392;51.082;17.080;2023-08-20T04:04:52;19.15;;;12.50;;
69280;SDS011;56392;51.082;17.080;2023-08-20T04:10:17;19.50;;;13.10;;
69280;SDS011;56392;51.082;17.080;2023-08-20T04:15:40;19.77;;;13.27;;
69280;SDS011;56392;51.082;17.080;2023-08-20T04:21:03;20.00;;;12.48;;
69280;SDS011;56392;51.082;17.080;2023-08-20T04:26:28;18.63;;;12.50;;
69280;SDS011;56392;51.082;17.080;2023-08-20T04:31:50;17.53;;;11.73;;
69280;SDS011;56392;51.082;17.080;2023-08-20T04:37:13;16.95;;;12.07;;
69280;SDS011;56392;51.082;17.080;2023-08-20T04:42:38;19.85;;;12.07;;
69280;SDS011;56392;51.082;17.080;2023-08-20T04:48:01;17.07;;;11.83;;
69280;SDS011;56392;51.082;17.080;2023-08-20T04:53:24;18.95;;;12.38;;
69280;SDS011;56392;51.082;17.080;2023-08-20T04:58:48;17.23;;;12.23;;
69280;SDS011;56392;51.082;17.080;2023-08-20T05:04:11;16.63;;;11.67;;
69280;SDS011;56392;51.082;17.080;2023-08-20T05:09:35;16.23;;;11.23;;
69280;SDS011;56392;51.082;17.080;2023-08-20T05:15:03;19.95;;;11.57;;
69280;SDS011;56392;51.082;17.080;2023-08-20T05:20:26;17.45;;;11.52;;
69280;SDS011;56392;51.082;17.080;2023-08-20T05:25:49;16.53;;;11.10;;
69280;SDS011;56392;51.082;17.080;2023-08-20T05:31:14;16.90;;;10.80;;
69280;SDS011;56392;51.082;17.080;2023-08-20T05:36:37;16.35;;;11.60;;
69280;SDS011;56392;51.082;17.080;2023-08-20T05:41:59;16.40;;;11.17;;
69280;SDS011;56392;51.082;17.080;2023-08-20T05:47:24;18.42;;;12.55;;
69280;SDS011;56392;51.082;17.080;2023-08-20T05:52:48;15.73;;;11.60;;
69280;SDS011;56392;51.082;17.080;2023-08-20T05:58:11;18.87;;;12.60;;
69280;SDS011;56392;51.082;17.080;2023-08-20T06:03:38;18.80;;;12.57;;
69280;SDS011;56392;51.082;17.080;2023-08-20T06:09:01;18.25;;;12.10;;
69280;SDS011;56392;51.082;17.080;2023-08-20T06:14:24;17.17;;;11.65;;
69280;SDS011;56392;51.082;17.080;2023-08-20T06:19:48;19.33;;;11.67;;
69280;SDS011;56392;51.082;17.080;2023-08-20T06:25:14;17.13;;;11.45;;
69280;SDS011;56392;51.082;17.080;2023-08-20T06:30:37;15.30;;;10.32;;
69280;SDS011;56392;51.082;17.080;2023-08-20T06:36:02;16.30;;;10.77;;
69280;SDS011;56392;51.082;17.080;2023-08-20T06:41:28;17.52;;;10.73;;
69280;SDS011;56392;51.082;17.080;2023-08-20T06:46:51;15.05;;;9.73;;
69280;SDS011;56392;51.082;17.080;2023-08-20T06:52:16;17.17;;;10.40;;
69280;SDS011;56392;51.082;17.080;2023-08-20T06:57:40;14.20;;;9.83;;
69280;SDS011;56392;51.082;17.080;2023-08-20T07:03:03;12.50;;;9.05;;
69280;SDS011;56392;51.082;17.080;2023-08-20T07:08:28;12.15;;;9.32;;
69280;SDS011;56392;51.082;17.080;2023-08-20T07:13:51;13.43;;;9.20;;
69280;SDS011;56392;51.082;17.080;2023-08-20T07:19:14;12.80;;;8.35;;
69280;SDS011;56392;51.082;17.080;2023-08-20T07:24:38;11.98;;;8.52;;
69280;SDS011;56392;51.082;17.080;2023-08-20T07:30:02;11.70;;;8.63;;
69280;SDS011;56392;51.082;17.080;2023-08-20T07:35:25;11.02;;;8.35;;
69280;SDS011;56392;51.082;17.080;2023-08-20T07:40:51;14.60;;;9.00;;
69280;SDS011;56392;51.082;17.080;2023-08-20T07:46:15;11.60;;;8.40;;
69280;SDS011;56392;51.082;17.080;2023-08-20T07:51:38;15.40;;;8.80;;
69280;SDS011;56392;51.082;17.080;2023-08-20T07:57:03;11.98;;;8.35;;
69280;SDS011;56392;51.082;17.080;2023-08-20T08:02:26;15.88;;;8.48;;
69280;SDS011;56392;51.082;17.080;2023-08-20T08:07:49;13.43;;;8.10;;
69280;SDS011;56392;51.082;17.080;2023-08-20T08:13:14;11.68;;;7.97;;
69280;SDS011;56392;51.082;17.080;2023-08-20T08:18:38;11.07;;;8.20;;
69280;SDS011;56392;51.082;17.080;2023-08-20T08:24:02;12.60;;;8.67;;
69280;SDS011;56392;51.082;17.080;2023-08-20T08:29:27;11.25;;;8.00;;
69280;SDS011;56392;51.082;17.080;2023-08-20T08:34:50;13.52;;;8.43;;
69280;SDS011;56392;51.082;17.080;2023-08-20T08:40:13;12.98;;;8.05;;
69280;SDS011;56392;51.082;17.080;2023-08-20T08:45:37;13.30;;;8.43;;
69280;SDS011;56392;51.082;17.080;2023-08-20T08:51:00;11.50;;;8.02;;
69280;SDS011;56392;51.082;17.080;2023-08-20T08:56:24;9.70;;;7.60;;
69280;SDS011;56392;51.082;17.080;2023-08-20T09:01:48;11.13;;;7.47;;
69280;SDS011;56392;51.082;17.080;2023-08-20T09:07:12;10.73;;;7.60;;
69280;SDS011;56392;51.082;17.080;2023-08-20T09:12:36;12.15;;;7.97;;
69280;SDS011;56392;51.082;17.080;2023-08-20T09:18:01;10.30;;;7.40;;
69280;SDS011;56392;51.082;17.080;2023-08-20T09:23:28;14.85;;;7.70;;
69280;SDS011;56392;51.082;17.080;2023-08-20T09:28:54;10.00;;;7.03;;
69280;SDS011;56392;51.082;17.080;2023-08-20T09:34:19;11.45;;;7.70;;
69280;SDS011;56392;51.082;17.080;2023-08-20T09:39:42;10.10;;;7.87;;
69280;SDS011;56392;51.082;17.080;2023-08-20T09:45:06;10.00;;;7.82;;
69280;SDS011;56392;51.082;17.080;2023-08-20T09:50:33;11.13;;;7.88;;
69280;SDS011;56392;51.082;17.080;2023-08-20T09:56:01;10.73;;;8.17;;
69280;SDS011;56392;51.082;17.080;2023-08-20T10:01:31;14.40;;;8.00;;
69280;SDS011;56392;51.082;17.080;2023-08-20T10:06:56;11.38;;;8.10;;
69280;SDS011;56392;51.082;17.080;2023-08-20T10:12:20;12.13;;;8.23;;
69280;SDS011;56392;51.082;17.080;2023-08-20T10:17:44;9.77;;;7.32;;
69280;SDS011;56392;51.082;17.080;2023-08-20T10:23:09;12.90;;;7.50;;
69280;SDS011;56392;51.082;17.080;2023-08-20T10:28:34;12.75;;;7.72;;
69280;SDS011;56392;51.082;17.080;2023-08-20T10:33:58;10.00;;;7.67;;
69280;SDS011;56392;51.082;17.080;2023-08-20T10:39:22;13.82;;;7.70;;
69280;SDS011;56392;51.082;17.080;2023-08-20T10:44:58;12.20;;;7.90;;
69280;SDS011;56392;51.082;17.080;2023-08-20T10:50:24;11.37;;;7.50;;
69280;SDS011;56392;51.082;17.080;2023-08-20T10:55:54;11.55;;;7.60;;
69280;SDS011;56392;51.082;17.080;2023-08-20T11:01:30;11.90;;;7.30;;
69280;SDS011;56392;51.082;17.080;2023-08-20T11:06:53;10.83;;;7.20;;
69280;SDS011;56392;51.082;17.080;2023-08-20T11:12:20;13.48;;;7.65;;
69280;SDS011;56392;51.082;17.080;2023-08-20T11:17:44;11.38;;;7.47;;
69280;SDS011;56392;51.082;17.080;2023-08-20T11:23:08;10.00;;;7.70;;
69280;SDS011;56392;51.082;17.080;2023-08-20T11:28:33;11.40;;;7.87;;
69280;SDS011;56392;51.082;17.080;2023-08-20T11:33:56;12.02;;;6.60;;
69280;SDS011;56392;51.082;17.080;2023-08-20T11:39:19;10.48;;;6.95;;
69280;SDS011;56392;51.082;17.080;2023-08-20T11:44:45;11.20;;;6.83;;
69280;SDS011;56392;51.082;17.080;2023-08-20T11:50:09;11.60;;;7.25;;
69280;SDS011;56392;51.082;17.080;2023-08-20T11:55:32;10.88;;;7.22;;
69280;SDS011;56392;51.082;17.080;2023-08-20T12:00:57;11.13;;;7.47;;
69280;SDS011;56392;51.082;17.080;2023-08-20T12:06:22;11.07;;;7.35;;
69280;SDS011;56392;51.082;17.080;2023-08-20T12:11:47;10.50;;;7.72;;
69280;SDS011;56392;51.082;17.080;2023-08-20T12:17:12;11.40;;;7.13;;
69280;SDS011;56392;51.082;17.080;2023-08-20T12:22:39;12.70;;;8.20;;
69280;SDS011;56392;51.082;17.080;2023-08-20T12:28:03;11.45;;;8.23;;
69280;SDS011;56392;51.082;17.080;2023-08-20T12:33:30;12.18;;;8.20;;
69280;SDS011;56392;51.082;17.080;2023-08-20T12:38:53;11.70;;;7.93;;
69280;SDS011;56392;51.082;17.080;2023-08-20T12:44:17;10.35;;;7.18;;
69280;SDS011;56392;51.082;17.080;2023-08-20T12:49:41;10.43;;;8.05;;
69280;SDS011;56392;51.082;17.080;2023-08-20T12:55:04;10.83;;;7.93;;
69280;SDS011;56392;51.082;17.080;2023-08-20T13:00:28;11.98;;;8.27;;
69280;SDS011;56392;51.082;17.080;2023-08-20T13:05:53;12.02;;;7.90;;
69280;SDS011;56392;51.082;17.080;2023-08-20T13:11:18;11.95;;;7.63;;
69280;SDS011;56392;51.082;17.080;2023-08-20T13:16:44;11.77;;;7.90;;
69280;SDS011;56392;51.082;17.080;2023-08-20T13:22:11;11.70;;;8.35;;
69280;SDS011;56392;51.082;17.080;2023-08-20T13:27:34;13.02;;;8.25;;
69280;SDS011;56392;51.082;17.080;2023-08-20T13:32:57;12.83;;;7.87;;
69280;SDS011;56392;51.082;17.080;2023-08-20T13:38:21;11.88;;;7.90;;
69280;SDS011;56392;51.082;17.080;2023-08-20T13:43:44;11.27;;;7.35;;
69280;SDS011;56392;51.082;17.080;2023-08-20T13:49:07;11.27;;;7.33;;
69280;SDS011;56392;51.082;17.080;2023-08-20T13:54:32;12.85;;;7.88;;
69280;SDS011;56392;51.082;17.080;2023-08-20T13:59:55;11.05;;;6.85;;
69280;SDS011;56392;51.082;17.080;2023-08-20T14:05:18;9.52;;;6.43;;
69280;SDS011;56392;51.082;17.080;2023-08-20T14:10:43;9.33;;;6.20;;
69280;SDS011;56392;51.082;17.080;2023-08-20T14:16:06;9.63;;;6.05;;
69280;SDS011;56392;51.082;17.080;2023-08-20T14:21:28;10.73;;;6.50;;
69280;SDS011;56392;51.082;17.080;2023-08-20T14:26:53;11.80;;;6.67;;
69280;SDS011;56392;51.082;17.080;2023-08-20T14:32:16;10.63;;;6.80;;
69280;SDS011;56392;51.082;17.080;2023-08-20T14:37:40;12.55;;;6.60;;
69280;SDS011;56392;51.082;17.080;2023-08-20T14:43:04;13.27;;;5.97;;
69280;SDS011;56392;51.082;17.080;2023-08-20T14:48:27;12.30;;;5.75;;
69280;SDS011;56392;51.082;17.080;2023-08-20T14:53:50;9.20;;;5.90;;
69280;SDS011;56392;51.082;17.080;2023-08-20T14:59:14;10.63;;;6.18;;
69280;SDS011;56392;51.082;17.080;2023-08-20T15:04:37;11.10;;;6.30;;
69280;SDS011;56392;51.082;17.080;2023-08-20T15:10:00;11.60;;;6.30;;
69280;SDS011;56392;51.082;17.080;2023-08-20T15:15:25;11.93;;;6.15;;
69280;SDS011;56392;51.082;17.080;2023-08-20T15:20:53;8.73;;;5.83;;
69280;SDS011;56392;51.082;17.080;2023-08-20T15:26:17;10.13;;;6.00;;
69280;SDS011;56392;51.082;17.080;2023-08-20T15:31:43;10.60;;;5.95;;
69280;SDS011;56392;51.082;17.080;2023-08-20T15:37:07;10.23;;;6.00;;
69280;SDS011;56392;51.082;17.080;2023-08-20T15:42:30;11.65;;;5.65;;
69280;SDS011;56392;51.082;17.080;2023-08-20T15:47:54;9.40;;;5.68;;
69280;SDS011;56392;51.082;17.080;2023-08-20T15:53:17;10.40;;;6.57;;
69280;SDS011;56392;51.082;17.080;2023-08-20T15:58:40;18.70;;;10.80;;
69280;SDS011;56392;51.082;17.080;2023-08-20T16:04:05;15.38;;;8.80;;
69280;SDS011;56392;51.082;17.080;2023-08-20T16:09:29;14.45;;;7.50;;
69280;SDS011;56392;51.082;17.080;2023-08-20T16:14:52;13.33;;;7.13;;
69280;SDS011;56392;51.082;17.080;2023-08-20T16:20:16;14.10;;;7.03;;
69280;SDS011;56392;51.082;17.080;2023-08-20T16:25:39;11.10;;;7.50;;
69280;SDS011;56392;51.082;17.080;2023-08-20T16:31:05;11.60;;;7.57;;
69280;SDS011;56392;51.082;17.080;2023-08-20T16:36:29;12.52;;;6.40;;
69280;SDS011;56392;51.082;17.080;2023-08-20T16:41:53;13.30;;;6.97;;
69280;SDS011;56392;51.082;17.080;2023-08-20T16:47:17;12.02;;;6.63;;
69280;SDS011;56392;51.082;17.080;2023-08-20T16:52:41;10.03;;;7.00;;
69280;SDS011;56392;51.082;17.080;2023-08-20T16:58:04;11.18;;;6.50;;
69280;SDS011;56392;51.082;17.080;2023-08-20T17:03:28;12.57;;;7.47;;
69280;SDS011;56392;51.082;17.080;2023-08-20T17:08:52;9.27;;;6.97;;
69280;SDS011;56392;51.082;17.080;2023-08-20T17:14:15;9.55;;;7.22;;
69280;SDS011;56392;51.082;17.080;2023-08-20T17:19:38;9.88;;;6.95;;
69280;SDS011;56392;51.082;17.080;2023-08-20T17:25:03;11.17;;;6.97;;
69280;SDS011;56392;51.082;17.080;2023-08-20T17:30:26;11.23;;;7.40;;
69280;SDS011;56392;51.082;17.080;2023-08-20T17:35:49;11.10;;;7.50;;
69280;SDS011;56392;51.082;17.080;2023-08-20T17:41:14;10.50;;;7.38;;
69280;SDS011;56392;51.082;17.080;2023-08-20T17:46:43;10.87;;;7.40;;
69280;SDS011;56392;51.082;17.080;2023-08-20T17:52:07;11.75;;;7.80;;
69280;SDS011;56392;51.082;17.080;2023-08-20T17:57:32;11.88;;;7.30;;
69280;SDS011;56392;51.082;17.080;2023-08-20T18:02:55;11.33;;;7.00;;
69280;SDS011;56392;51.082;17.080;2023-08-20T18:08:18;13.25;;;7.30;;
69280;SDS011;56392;51.082;17.080;2023-08-20T18:13:43;11.00;;;7.45;;
69280;SDS011;56392;51.082;17.080;2023-08-20T18:19:06;12.13;;;7.30;;
69280;SDS011;56392;51.082;17.080;2023-08-20T18:24:29;11.65;;;7.35;;
69280;SDS011;56392;51.082;17.080;2023-08-20T18:29:53;16.27;;;7.85;;
69280;SDS011;56392;51.082;17.080;2023-08-20T18:35:16;15.02;;;8.10;;
69280;SDS011;56392;51.082;17.080;2023-08-20T18:40:40;18.20;;;8.83;;
69280;SDS011;56392;51.082;17.080;2023-08-20T18:46:05;15.60;;;8.35;;
69280;SDS011;56392;51.082;17.080;2023-08-20T18:51:29;14.30;;;7.78;;
69280;SDS011;56392;51.082;17.080;2023-08-20T18:56:52;11.87;;;7.77;;
69280;SDS011;56392;51.082;17.080;2023-08-20T19:02:16;12.95;;;7.95;;
69280;SDS011;56392;51.082;17.080;2023-08-20T19:07:39;11.68;;;8.15;;
69280;SDS011;56392;51.082;17.080;2023-08-20T19:13:04;13.87;;;8.30;;
69280;SDS011;56392;51.082;17.080;2023-08-20T19:18:28;11.23;;;8.40;;
69280;SDS011;56392;51.082;17.080;2023-08-20T19:23:51;14.02;;;8.60;;
69280;SDS011;56392;51.082;17.080;2023-08-20T19:29:15;14.00;;;8.43;;
69280;SDS011;56392;51.082;17.080;2023-08-20T19:34:42;13.37;;;8.60;;
69280;SDS011;56392;51.082;17.080;2023-08-20T19:40:06;13.40;;;8.60;;
69280;SDS011;56392;51.082;17.080;2023-08-20T19:45:30;13.52;;;8.43;;
69280;SDS011;56392;51.082;17.080;2023-08-20T19:50:55;12.77;;;8.73;;
69280;SDS011;56392;51.082;17.080;2023-08-20T19:56:18;13.23;;;9.45;;
69280;SDS011;56392;51.082;17.080;2023-08-20T20:01:44;14.15;;;9.20;;
69280;SDS011;56392;51.082;17.080;2023-08-20T20:07:09;14.77;;;8.87;;
69280;SDS011;56392;51.082;17.080;2023-08-20T20:12:32;13.30;;;8.85;;
69280;SDS011;56392;51.082;17.080;2023-08-20T20:17:56;13.57;;;9.32;;
69280;SDS011;56392;51.082;17.080;2023-08-20T20:23:20;15.80;;;9.90;;
69280;SDS011;56392;51.082;17.080;2023-08-20T20:28:43;17.87;;;10.00;;
69280;SDS011;56392;51.082;17.080;2023-08-20T20:34:06;14.52;;;9.02;;
69280;SDS011;56392;51.082;17.080;2023-08-20T20:39:31;13.10;;;9.23;;
69280;SDS011;56392;51.082;17.080;2023-08-20T20:44:55;13.90;;;8.90;;
69280;SDS011;56392;51.082;17.080;2023-08-20T20:50:18;14.32;;;9.93;;
69280;SDS011;56392;51.082;17.080;2023-08-20T20:55:42;14.43;;;10.13;;
69280;SDS011;56392;51.082;17.080;2023-08-20T21:01:05;19.00;;;10.17;;
69280;SDS011;56392;51.082;17.080;2023-08-20T21:06:28;19.17;;;13.00;;
69280;SDS011;56392;51.082;17.080;2023-08-20T21:11:53;19.73;;;13.70;;
69280;SDS011;56392;51.082;17.080;2023-08-20T21:17:16;25.10;;;16.87;;
69280;SDS011;56392;51.082;17.080;2023-08-20T21:22:39;38.63;;;25.57;;
69280;SDS011;56392;51.082;17.080;2023-08-20T21:28:03;20.63;;;15.02;;
69280;SDS011;56392;51.082;17.080;2023-08-20T21:33:27;23.05;;;14.05;;
69280;SDS011;56392;51.082;17.080;2023-08-20T21:38:50;34.77;;;20.73;;
69280;SDS011;56392;51.082;17.080;2023-08-20T21:44:14;30.50;;;21.60;;
69280;SDS011;56392;51.082;17.080;2023-08-20T21:49:37;30.40;;;20.77;;
69280;SDS011;56392;51.082;17.080;2023-08-20T21:55:01;31.20;;;21.63;;
69280;SDS011;56392;51.082;17.080;2023-08-20T22:00:25;33.80;;;23.70;;
69280;SDS011;56392;51.082;17.080;2023-08-20T22:05:48;33.78;;;23.33;;
69280;SDS011;56392;51.082;17.080;2023-08-20T22:11:11;35.00;;;23.37;;
69280;SDS011;56392;51.082;17.080;2023-08-20T22:16:36;32.60;;;22.47;;
69280;SDS011;56392;51.082;17.080;2023-08-20T22:21:59;29.75;;;21.40;;
69280;SDS011;56392;51.082;17.080;2023-08-20T22:27:22;28.55;;;19.30;;
69280;SDS011;56392;51.082;17.080;2023-08-20T22:32:46;30.97;;;19.87;;
69280;SDS011;56392;51.082;17.080;2023-08-20T22:38:09;25.60;;;17.27;;
69280;SDS011;56392;51.082;17.080;2023-08-20T22:43:33;24.58;;;16.70;;
69280;SDS011;56392;51.082;17.080;2023-08-20T22:48:57;26.80;;;17.70;;
69280;SDS011;56392;51.082;17.080;2023-08-20T22:54:20;28.70;;;19.25;;
69280;SDS011;56392;51.082;17.080;2023-08-20T22:59:43;29.73;;;18.75;;
69280;SDS011;56392;51.082;17.080;2023-08-20T23:05:07;29.00;;;20.20;;
69280;SDS011;56392;51.082;17.080;2023-08-20T23:10:31;32.83;;;22.43;;
69280;SDS011;56392;51.082;17.080;2023-08-20T23:15:54;29.25;;;19.58;;
69280;SDS011;56392;51.082;17.080;2023-08-20T23:21:18;30.65;;;20.65;;
69280;SDS011;56392;51.082;17.080;2023-08-20T23:26:41;32.33;;;20.80;;
69280;SDS011;56392;51.082;17.080;2023-08-20T23:32:04;30.55;;;20.83;;
69280;SDS011;56392;51.082;17.080;2023-08-20T23:37:28;34.20;;;21.60;;
69280;SDS011;56392;51.082;17.080;2023-08-20T23:42:52;33.17;;;22.20;;
69280;SDS011;56392;51.082;17.080;2023-08-20T23:48:15;39.20;;;25.25;;
69280;SDS011;56392;51.082;17.080;2023-08-20T23:53:39;42.65;;;27.08;;
69280;SDS011;56392;51.082;17.080;2023-08-20T23:59:02;40.90;;;25.53;;
